sensor_id;sensor_type;location;lat;lon;timestamp;P1;durP1;ratioP1;P2;durP2;ratioP2
2019;SDS011;1014;51.960;8.542;2023-07-20T00:01:26;50.63;;;46.90;;
2019;SDS011;1014;51.960;8.542;2023-07-20T00:03:53;50.20;;;46.90;;
2019;SDS011;1014;51.960;8.542;2023-07-20T00:06:20;50.50;;;46.83;;
2019;SDS011;1014;51.960;8.542;2023-07-20T00:08:48;47.20;;;44.10;;
2019;SDS011;1014;51.960;8.542;2023-07-20T00:11:16;46.43;;;43.27;;
2019;SDS011;1014;51.960;8.542;2023-07-20T00:13:44;43.80;;;40.70;;
2019;SDS011;1014;51.960;8.542;2023-07-20T00:16:11;43.07;;;40.13;;
2019;SDS011;1014;51.960;8.542;2023-07-20T00:18:38;44.33;;;41.20;;
2019;SDS011;1014;51.960;8.542;2023-07-20T00:21:05;42.40;;;39.60;;
2019;SDS011;1014;51.960;8.542;2023-07-20T00:23:32;43.20;;;40.13;;
2019;SDS011;1014;51.960;8.542;2023-07-20T00:25:59;44.03;;;41.03;;
2019;SDS011;1014;51.960;8.542;2023-07-20T00:28:27;44.60;;;41.43;;
2019;SDS011;1014;51.960;8.542;2023-07-20T00:30:55;43.20;;;39.97;;
2019;SDS011;1014;51.960;8.542;2023-07-20T00:33:22;43.00;;;40.07;;
2019;SDS011;1014;51.960;8.542;2023-07-20T00:35:49;41.57;;;38.53;;
2019;SDS011;1014;51.960;8.542;2023-07-20T00:38:17;47.23;;;43.47;;
2019;SDS011;1014;51.960;8.542;2023-07-20T00:40:45;44.97;;;41.53;;
2019;SDS011;1014;51.960;8.542;2023-07-20T00:43:13;43.80;;;40.50;;
2019;SDS011;1014;51.960;8.542;2023-07-20T00:45:40;43.37;;;40.23;;
2019;SDS011;1014;51.960;8.542;2023-07-20T00:48:08;44.40;;;40.63;;
2019;SDS011;1014;51.960;8.542;2023-07-20T00:50:36;44.10;;;40.63;;
2019;SDS011;1014;51.960;8.542;2023-07-20T00:53:03;46.03;;;42.73;;
2019;SDS011;1014;51.960;8.542;2023-07-20T00:55:31;41.70;;;38.70;;
2019;SDS011;1014;51.960;8.542;2023-07-20T00:57:58;42.73;;;39.70;;
2019;SDS011;1014;51.960;8.542;2023-07-20T01:00:25;43.80;;;40.50;;
2019;SDS011;1014;51.960;8.542;2023-07-20T01:02:55;43.37;;;40.20;;
2019;SDS011;1014;51.960;8.542;2023-07-20T01:05:25;43.40;;;40.00;;
2019;SDS011;1014;51.960;8.542;2023-07-20T01:07:58;43.97;;;40.57;;
2019;SDS011;1014;51.960;8.542;2023-07-20T01:10:28;45.70;;;42.10;;
2019;SDS011;1014;51.960;8.542;2023-07-20T01:12:56;43.97;;;40.87;;
2019;SDS011;1014;51.960;8.542;2023-07-20T01:15:24;44.80;;;40.87;;
2019;SDS011;1014;51.960;8.542;2023-07-20T01:17:51;44.57;;;41.07;;
2019;SDS011;1014;51.960;8.542;2023-07-20T01:20:18;43.37;;;40.00;;
2019;SDS011;1014;51.960;8.542;2023-07-20T01:22:51;44.70;;;40.87;;
2019;SDS011;1014;51.960;8.542;2023-07-20T01:25:28;44.80;;;41.30;;
2019;SDS011;1014;51.960;8.542;2023-07-20T01:28:03;43.53;;;40.30;;
2019;SDS011;1014;51.960;8.542;2023-07-20T01:30:43;43.30;;;40.10;;
2019;SDS011;1014;51.960;8.542;2023-07-20T01:33:15;45.07;;;41.80;;
2019;SDS011;1014;51.960;8.542;2023-07-20T01:35:43;43.87;;;40.33;;
2019;SDS011;1014;51.960;8.542;2023-07-20T01:38:11;42.63;;;39.53;;
2019;SDS011;1014;51.960;8.542;2023-07-20T01:40:39;41.63;;;38.43;;
2019;SDS011;1014;51.960;8.542;2023-07-20T01:43:07;44.43;;;41.40;;
2019;SDS011;1014;51.960;8.542;2023-07-20T01:45:34;41.43;;;38.23;;
2019;SDS011;1014;51.960;8.542;2023-07-20T01:48:01;42.80;;;39.37;;
2019;SDS011;1014;51.960;8.542;2023-07-20T01:50:30;43.40;;;40.10;;
2019;SDS011;1014;51.960;8.542;2023-07-20T01:52:59;44.50;;;40.70;;
2019;SDS011;1014;51.960;8.542;2023-07-20T01:55:26;49.40;;;45.63;;
2019;SDS011;1014;51.960;8.542;2023-07-20T01:57:54;45.43;;;41.10;;
2019;SDS011;1014;51.960;8.542;2023-07-20T02:00:21;45.33;;;41.27;;
2019;SDS011;1014;51.960;8.542;2023-07-20T02:02:49;49.30;;;44.60;;
2019;SDS011;1014;51.960;8.542;2023-07-20T02:05:16;47.80;;;43.70;;
2019;SDS011;1014;51.960;8.542;2023-07-20T02:07:44;50.30;;;45.90;;
2019;SDS011;1014;51.960;8.542;2023-07-20T02:10:12;50.10;;;45.80;;
2019;SDS011;1014;51.960;8.542;2023-07-20T02:12:39;51.07;;;46.37;;
2019;SDS011;1014;51.960;8.542;2023-07-20T02:15:06;48.30;;;44.10;;
2019;SDS011;1014;51.960;8.542;2023-07-20T02:17:34;49.70;;;45.30;;
2019;SDS011;1014;51.960;8.542;2023-07-20T02:20:02;50.60;;;46.10;;
2019;SDS011;1014;51.960;8.542;2023-07-20T02:22:29;51.73;;;47.40;;
2019;SDS011;1014;51.960;8.542;2023-07-20T02:24:58;50.70;;;46.40;;
2019;SDS011;1014;51.960;8.542;2023-07-20T02:27:25;53.77;;;49.17;;
2019;SDS011;1014;51.960;8.542;2023-07-20T02:29:52;51.10;;;46.70;;
2019;SDS011;1014;51.960;8.542;2023-07-20T02:32:19;54.67;;;49.57;;
2019;SDS011;1014;51.960;8.542;2023-07-20T02:34:46;53.27;;;48.47;;
2019;SDS011;1014;51.960;8.542;2023-07-20T02:37:13;54.13;;;49.13;;
2019;SDS011;1014;51.960;8.542;2023-07-20T02:39:40;56.17;;;51.03;;
2019;SDS011;1014;51.960;8.542;2023-07-20T02:42:08;54.47;;;49.57;;
2019;SDS011;1014;51.960;8.542;2023-07-20T02:44:35;55.40;;;49.63;;
2019;SDS011;1014;51.960;8.542;2023-07-20T02:47:02;55.60;;;49.83;;
2019;SDS011;1014;51.960;8.542;2023-07-20T02:49:29;54.97;;;49.70;;
2019;SDS011;1014;51.960;8.542;2023-07-20T02:51:56;57.17;;;51.07;;
2019;SDS011;1014;51.960;8.542;2023-07-20T02:54:23;57.10;;;51.60;;
2019;SDS011;1014;51.960;8.542;2023-07-20T02:56:50;56.63;;;51.17;;
2019;SDS011;1014;51.960;8.542;2023-07-20T02:59:19;56.50;;;50.90;;
2019;SDS011;1014;51.960;8.542;2023-07-20T03:01:46;54.97;;;49.50;;
2019;SDS011;1014;51.960;8.542;2023-07-20T03:04:13;56.77;;;50.80;;
2019;SDS011;1014;51.960;8.542;2023-07-20T03:06:41;58.87;;;52.87;;
2019;SDS011;1014;51.960;8.542;2023-07-20T03:09:08;58.40;;;52.60;;
2019;SDS011;1014;51.960;8.542;2023-07-20T03:11:35;56.70;;;50.63;;
2019;SDS011;1014;51.960;8.542;2023-07-20T03:14:02;56.90;;;50.50;;
2019;SDS011;1014;51.960;8.542;2023-07-20T03:16:31;57.27;;;51.70;;
2019;SDS011;1014;51.960;8.542;2023-07-20T03:18:58;59.33;;;53.13;;
2019;SDS011;1014;51.960;8.542;2023-07-20T03:21:26;56.30;;;50.30;;
2019;SDS011;1014;51.960;8.542;2023-07-20T03:23:53;61.13;;;54.10;;
2019;SDS011;1014;51.960;8.542;2023-07-20T03:26:21;56.60;;;50.87;;
2019;SDS011;1014;51.960;8.542;2023-07-20T03:28:48;59.73;;;53.80;;
2019;SDS011;1014;51.960;8.542;2023-07-20T03:31:15;65.07;;;54.80;;
2019;SDS011;1014;51.960;8.542;2023-07-20T03:33:44;64.53;;;57.83;;
2019;SDS011;1014;51.960;8.542;2023-07-20T03:36:11;61.00;;;54.60;;
2019;SDS011;1014;51.960;8.542;2023-07-20T03:38:38;66.57;;;59.40;;
2019;SDS011;1014;51.960;8.542;2023-07-20T03:41:05;63.07;;;56.70;;
2019;SDS011;1014;51.960;8.542;2023-07-20T03:43:32;62.23;;;55.20;;
2019;SDS011;1014;51.960;8.542;2023-07-20T03:45:59;55.80;;;50.40;;
2019;SDS011;1014;51.960;8.542;2023-07-20T03:48:26;56.17;;;50.37;;
2019;SDS011;1014;51.960;8.542;2023-07-20T03:50:54;59.00;;;51.80;;
2019;SDS011;1014;51.960;8.542;2023-07-20T03:53:21;54.57;;;48.70;;
2019;SDS011;1014;51.960;8.542;2023-07-20T03:55:49;55.00;;;49.50;;
2019;SDS011;1014;51.960;8.542;2023-07-20T03:58:17;56.50;;;50.77;;
2019;SDS011;1014;51.960;8.542;2023-07-20T04:00:44;57.43;;;51.70;;
2019;SDS011;1014;51.960;8.542;2023-07-20T04:03:12;71.33;;;56.23;;
2019;SDS011;1014;51.960;8.542;2023-07-20T04:05:39;93.60;;;85.80;;
2019;SDS011;1014;51.960;8.542;2023-07-20T04:08:07;86.67;;;80.23;;
2019;SDS011;1014;51.960;8.542;2023-07-20T04:10:36;72.50;;;66.17;;
2019;SDS011;1014;51.960;8.542;2023-07-20T04:13:03;67.10;;;61.90;;
2019;SDS011;1014;51.960;8.542;2023-07-20T04:15:30;65.67;;;60.50;;
2019;SDS011;1014;51.960;8.542;2023-07-20T04:17:57;57.97;;;53.73;;
2019;SDS011;1014;51.960;8.542;2023-07-20T04:20:25;60.43;;;56.13;;
2019;SDS011;1014;51.960;8.542;2023-07-20T04:22:52;54.67;;;50.77;;
2019;SDS011;1014;51.960;8.542;2023-07-20T04:25:20;53.53;;;50.03;;
2019;SDS011;1014;51.960;8.542;2023-07-20T04:27:47;54.77;;;50.70;;
2019;SDS011;1014;51.960;8.542;2023-07-20T04:30:16;52.27;;;48.87;;
2019;SDS011;1014;51.960;8.542;2023-07-20T04:32:45;50.63;;;47.33;;
2019;SDS011;1014;51.960;8.542;2023-07-20T04:35:16;51.50;;;48.20;;
2019;SDS011;1014;51.960;8.542;2023-07-20T04:37:43;48.83;;;45.53;;
2019;SDS011;1014;51.960;8.542;2023-07-20T04:40:11;50.00;;;46.77;;
2019;SDS011;1014;51.960;8.542;2023-07-20T04:42:40;50.63;;;47.33;;
2019;SDS011;1014;51.960;8.542;2023-07-20T04:45:07;51.20;;;47.57;;
2019;SDS011;1014;51.960;8.542;2023-07-20T04:47:34;52.17;;;48.67;;
2019;SDS011;1014;51.960;8.542;2023-07-20T04:50:01;49.90;;;46.40;;
2019;SDS011;1014;51.960;8.542;2023-07-20T04:52:28;49.47;;;46.07;;
2019;SDS011;1014;51.960;8.542;2023-07-20T04:54:56;51.37;;;47.87;;
2019;SDS011;1014;51.960;8.542;2023-07-20T04:57:23;50.87;;;47.30;;
2019;SDS011;1014;51.960;8.542;2023-07-20T04:59:52;50.57;;;47.27;;
2019;SDS011;1014;51.960;8.542;2023-07-20T05:02:19;52.80;;;48.97;;
2019;SDS011;1014;51.960;8.542;2023-07-20T05:04:46;50.53;;;47.13;;
2019;SDS011;1014;51.960;8.542;2023-07-20T05:07:13;49.30;;;46.00;;
2019;SDS011;1014;51.960;8.542;2023-07-20T05:09:40;46.20;;;43.20;;
2019;SDS011;1014;51.960;8.542;2023-07-20T05:12:08;48.50;;;45.33;;
2019;SDS011;1014;51.960;8.542;2023-07-20T05:14:37;44.87;;;41.90;;
2019;SDS011;1014;51.960;8.542;2023-07-20T05:17:05;48.80;;;45.50;;
2019;SDS011;1014;51.960;8.542;2023-07-20T05:19:32;46.63;;;43.57;;
2019;SDS011;1014;51.960;8.542;2023-07-20T05:21:59;43.37;;;40.67;;
2019;SDS011;1014;51.960;8.542;2023-07-20T05:24:27;43.53;;;40.93;;
2019;SDS011;1014;51.960;8.542;2023-07-20T05:26:54;42.70;;;40.07;;
2019;SDS011;1014;51.960;8.542;2023-07-20T05:29:21;39.80;;;37.30;;
2019;SDS011;1014;51.960;8.542;2023-07-20T05:31:48;39.50;;;37.20;;
2019;SDS011;1014;51.960;8.542;2023-07-20T05:34:16;41.30;;;38.30;;
2019;SDS011;1014;51.960;8.542;2023-07-20T05:36:43;39.53;;;37.03;;
2019;SDS011;1014;51.960;8.542;2023-07-20T05:39:10;39.33;;;36.97;;
2019;SDS011;1014;51.960;8.542;2023-07-20T05:41:37;38.83;;;36.63;;
2019;SDS011;1014;51.960;8.542;2023-07-20T05:44:04;40.03;;;37.73;;
2019;SDS011;1014;51.960;8.542;2023-07-20T05:46:31;34.80;;;32.90;;
2019;SDS011;1014;51.960;8.542;2023-07-20T05:48:58;31.23;;;29.53;;
2019;SDS011;1014;51.960;8.542;2023-07-20T05:51:28;32.67;;;30.53;;
2019;SDS011;1014;51.960;8.542;2023-07-20T05:53:55;31.67;;;29.87;;
2019;SDS011;1014;51.960;8.542;2023-07-20T05:56:22;32.63;;;30.63;;
2019;SDS011;1014;51.960;8.542;2023-07-20T05:58:49;29.60;;;28.00;;
2019;SDS011;1014;51.960;8.542;2023-07-20T06:01:16;29.87;;;28.07;;
2019;SDS011;1014;51.960;8.542;2023-07-20T06:03:44;27.43;;;26.03;;
2019;SDS011;1014;51.960;8.542;2023-07-20T06:06:11;27.27;;;25.87;;
2019;SDS011;1014;51.960;8.542;2023-07-20T06:08:39;26.57;;;25.23;;
2019;SDS011;1014;51.960;8.542;2023-07-20T06:11:06;24.70;;;23.50;;
2019;SDS011;1014;51.960;8.542;2023-07-20T06:13:34;26.03;;;24.63;;
2019;SDS011;1014;51.960;8.542;2023-07-20T06:16:01;24.87;;;23.57;;
2019;SDS011;1014;51.960;8.542;2023-07-20T06:18:28;25.07;;;23.37;;
2019;SDS011;1014;51.960;8.542;2023-07-20T06:20:56;25.03;;;23.63;;
2019;SDS011;1014;51.960;8.542;2023-07-20T06:23:23;22.83;;;21.70;;
2019;SDS011;1014;51.960;8.542;2023-07-20T06:25:52;22.67;;;21.47;;
2019;SDS011;1014;51.960;8.542;2023-07-20T06:28:19;22.87;;;21.77;;
2019;SDS011;1014;51.960;8.542;2023-07-20T06:30:46;22.10;;;20.90;;
2019;SDS011;1014;51.960;8.542;2023-07-20T06:33:13;23.50;;;22.30;;
2019;SDS011;1014;51.960;8.542;2023-07-20T06:35:41;21.67;;;20.67;;
2019;SDS011;1014;51.960;8.542;2023-07-20T06:38:08;23.17;;;22.07;;
2019;SDS011;1014;51.960;8.542;2023-07-20T06:40:35;24.10;;;22.70;;
2019;SDS011;1014;51.960;8.542;2023-07-20T06:43:04;22.13;;;21.03;;
2019;SDS011;1014;51.960;8.542;2023-07-20T06:45:31;22.60;;;21.20;;
2019;SDS011;1014;51.960;8.542;2023-07-20T06:47:58;21.63;;;20.53;;
2019;SDS011;1014;51.960;8.542;2023-07-20T06:50:25;23.23;;;21.93;;
2019;SDS011;1014;51.960;8.542;2023-07-20T06:55:44;22.20;;;20.90;;
2019;SDS011;1014;51.960;8.542;2023-07-20T06:58:12;21.40;;;20.37;;
2019;SDS011;1014;51.960;8.542;2023-07-20T07:00:39;21.70;;;20.60;;
2019;SDS011;1014;51.960;8.542;2023-07-20T07:03:07;22.10;;;21.00;;
2019;SDS011;1014;51.960;8.542;2023-07-20T07:05:35;22.80;;;21.60;;
2019;SDS011;1014;51.960;8.542;2023-07-20T07:08:03;23.40;;;22.20;;
2019;SDS011;1014;51.960;8.542;2023-07-20T07:10:30;21.10;;;20.00;;
2019;SDS011;1014;51.960;8.542;2023-07-20T07:12:57;21.67;;;20.47;;
2019;SDS011;1014;51.960;8.542;2023-07-20T07:15:26;20.33;;;19.33;;
2019;SDS011;1014;51.960;8.542;2023-07-20T07:17:53;21.20;;;20.17;;
2019;SDS011;1014;51.960;8.542;2023-07-20T07:20:20;20.40;;;19.50;;
2019;SDS011;1014;51.960;8.542;2023-07-20T07:22:49;19.50;;;18.50;;
2019;SDS011;1014;51.960;8.542;2023-07-20T07:25:18;19.13;;;18.10;;
2019;SDS011;1014;51.960;8.542;2023-07-20T07:27:45;19.90;;;18.70;;
2019;SDS011;1014;51.960;8.542;2023-07-20T07:30:12;19.30;;;18.20;;
2019;SDS011;1014;51.960;8.542;2023-07-20T07:32:41;19.40;;;18.30;;
2019;SDS011;1014;51.960;8.542;2023-07-20T07:35:08;19.50;;;18.50;;
2019;SDS011;1014;51.960;8.542;2023-07-20T07:37:36;18.47;;;17.47;;
2019;SDS011;1014;51.960;8.542;2023-07-20T07:40:04;19.90;;;18.90;;
2019;SDS011;1014;51.960;8.542;2023-07-20T07:42:32;19.90;;;18.90;;
2019;SDS011;1014;51.960;8.542;2023-07-20T07:44:59;17.97;;;17.10;;
2019;SDS011;1014;51.960;8.542;2023-07-20T07:47:26;19.07;;;18.10;;
2019;SDS011;1014;51.960;8.542;2023-07-20T07:49:54;18.90;;;18.00;;
2019;SDS011;1014;51.960;8.542;2023-07-20T07:52:22;18.17;;;17.27;;
2019;SDS011;1014;51.960;8.542;2023-07-20T07:54:49;18.73;;;17.63;;
2019;SDS011;1014;51.960;8.542;2023-07-20T07:57:16;19.60;;;18.40;;
2019;SDS011;1014;51.960;8.542;2023-07-20T07:59:43;18.40;;;17.50;;
2019;SDS011;1014;51.960;8.542;2023-07-20T08:02:10;19.03;;;18.03;;
2019;SDS011;1014;51.960;8.542;2023-07-20T08:04:37;19.70;;;18.60;;
2019;SDS011;1014;51.960;8.542;2023-07-20T08:07:06;19.23;;;18.13;;
2019;SDS011;1014;51.960;8.542;2023-07-20T08:09:33;19.40;;;18.40;;
2019;SDS011;1014;51.960;8.542;2023-07-20T08:12:00;19.47;;;18.37;;
2019;SDS011;1014;51.960;8.542;2023-07-20T08:14:28;19.40;;;18.40;;
2019;SDS011;1014;51.960;8.542;2023-07-20T08:16:55;19.53;;;18.27;;
2019;SDS011;1014;51.960;8.542;2023-07-20T08:19:23;19.17;;;18.07;;
2019;SDS011;1014;51.960;8.542;2023-07-20T08:21:50;19.73;;;18.73;;
2019;SDS011;1014;51.960;8.542;2023-07-20T08:24:18;19.50;;;18.50;;
2019;SDS011;1014;51.960;8.542;2023-07-20T08:26:45;19.40;;;18.40;;
2019;SDS011;1014;51.960;8.542;2023-07-20T08:29:12;19.67;;;18.67;;
2019;SDS011;1014;51.960;8.542;2023-07-20T08:31:39;19.87;;;18.77;;
2019;SDS011;1014;51.960;8.542;2023-07-20T08:34:06;19.43;;;18.33;;
2019;SDS011;1014;51.960;8.542;2023-07-20T08:36:34;19.83;;;18.73;;
2019;SDS011;1014;51.960;8.542;2023-07-20T08:39:01;19.43;;;18.43;;
2019;SDS011;1014;51.960;8.542;2023-07-20T08:41:30;19.20;;;18.10;;
2019;SDS011;1014;51.960;8.542;2023-07-20T08:43:57;19.63;;;18.53;;
2019;SDS011;1014;51.960;8.542;2023-07-20T08:46:25;19.37;;;18.33;;
2019;SDS011;1014;51.960;8.542;2023-07-20T08:48:53;19.77;;;18.60;;
2019;SDS011;1014;51.960;8.542;2023-07-20T08:51:21;19.90;;;18.80;;
2019;SDS011;1014;51.960;8.542;2023-07-20T08:53:48;20.60;;;19.50;;
2019;SDS011;1014;51.960;8.542;2023-07-20T08:56:17;20.50;;;19.40;;
2019;SDS011;1014;51.960;8.542;2023-07-20T08:58:46;20.30;;;19.20;;
2019;SDS011;1014;51.960;8.542;2023-07-20T09:01:13;19.80;;;18.70;;
2019;SDS011;1014;51.960;8.542;2023-07-20T09:03:41;19.50;;;18.50;;
2019;SDS011;1014;51.960;8.542;2023-07-20T09:06:09;19.43;;;18.43;;
2019;SDS011;1014;51.960;8.542;2023-07-20T09:08:37;20.17;;;19.07;;
2019;SDS011;1014;51.960;8.542;2023-07-20T09:11:04;20.70;;;19.60;;
2019;SDS011;1014;51.960;8.542;2023-07-20T09:13:32;20.87;;;19.67;;
2019;SDS011;1014;51.960;8.542;2023-07-20T09:16:00;20.80;;;19.50;;
2019;SDS011;1014;51.960;8.542;2023-07-20T09:18:29;21.63;;;20.40;;
2019;SDS011;1014;51.960;8.542;2023-07-20T09:21:01;21.50;;;20.30;;
2019;SDS011;1014;51.960;8.542;2023-07-20T09:23:31;21.00;;;19.70;;
2019;SDS011;1014;51.960;8.542;2023-07-20T09:25:59;21.37;;;20.17;;
2019;SDS011;1014;51.960;8.542;2023-07-20T09:28:26;20.80;;;19.60;;
2019;SDS011;1014;51.960;8.542;2023-07-20T09:30:54;20.37;;;19.27;;
2019;SDS011;1014;51.960;8.542;2023-07-20T09:33:23;21.10;;;19.90;;
2019;SDS011;1014;51.960;8.542;2023-07-20T09:35:50;21.90;;;20.70;;
2019;SDS011;1014;51.960;8.542;2023-07-20T09:38:18;22.10;;;20.90;;
2019;SDS011;1014;51.960;8.542;2023-07-20T09:40:45;21.97;;;20.70;;
2019;SDS011;1014;51.960;8.542;2023-07-20T09:43:12;21.80;;;20.50;;
2019;SDS011;1014;51.960;8.542;2023-07-20T09:45:40;22.10;;;20.80;;
2019;SDS011;1014;51.960;8.542;2023-07-20T09:48:07;22.67;;;21.27;;
2019;SDS011;1014;51.960;8.542;2023-07-20T09:50:40;22.70;;;21.30;;
2019;SDS011;1014;51.960;8.542;2023-07-20T09:55:59;21.90;;;20.60;;
2019;SDS011;1014;51.960;8.542;2023-07-20T09:58:26;22.07;;;20.47;;
2019;SDS011;1014;51.960;8.542;2023-07-20T10:00:54;21.23;;;19.93;;
2019;SDS011;1014;51.960;8.542;2023-07-20T10:03:22;22.63;;;21.13;;
2019;SDS011;1014;51.960;8.542;2023-07-20T10:05:54;22.20;;;21.00;;
2019;SDS011;1014;51.960;8.542;2023-07-20T10:08:24;22.30;;;21.00;;
2019;SDS011;1014;51.960;8.542;2023-07-20T10:10:51;21.80;;;20.50;;
2019;SDS011;1014;51.960;8.542;2023-07-20T10:13:21;21.40;;;20.00;;
2019;SDS011;1014;51.960;8.542;2023-07-20T10:15:53;21.90;;;20.60;;
2019;SDS011;1014;51.960;8.542;2023-07-20T10:18:22;21.50;;;20.30;;
2019;SDS011;1014;51.960;8.542;2023-07-20T10:20:54;21.37;;;20.07;;
2019;SDS011;1014;51.960;8.542;2023-07-20T10:23:22;21.53;;;20.20;;
2019;SDS011;1014;51.960;8.542;2023-07-20T10:25:49;21.80;;;20.60;;
2019;SDS011;1014;51.960;8.542;2023-07-20T10:28:17;21.77;;;20.37;;
2019;SDS011;1014;51.960;8.542;2023-07-20T10:30:44;21.90;;;20.50;;
2019;SDS011;1014;51.960;8.542;2023-07-20T10:33:11;22.10;;;20.70;;
2019;SDS011;1014;51.960;8.542;2023-07-20T10:35:52;21.53;;;20.13;;
2019;SDS011;1014;51.960;8.542;2023-07-20T10:38:20;21.70;;;20.40;;
2019;SDS011;1014;51.960;8.542;2023-07-20T10:41:04;20.97;;;19.87;;
2019;SDS011;1014;51.960;8.542;2023-07-20T10:43:43;20.57;;;19.47;;
2019;SDS011;1014;51.960;8.542;2023-07-20T10:46:10;20.83;;;19.63;;
2019;SDS011;1014;51.960;8.542;2023-07-20T10:48:58;21.87;;;20.57;;
2019;SDS011;1014;51.960;8.542;2023-07-20T10:51:27;22.33;;;21.03;;
2019;SDS011;1014;51.960;8.542;2023-07-20T10:53:56;22.37;;;21.07;;
2019;SDS011;1014;51.960;8.542;2023-07-20T10:56:25;22.63;;;21.33;;
2019;SDS011;1014;51.960;8.542;2023-07-20T10:58:55;21.40;;;20.10;;
2019;SDS011;1014;51.960;8.542;2023-07-20T11:01:24;21.73;;;20.43;;
2019;SDS011;1014;51.960;8.542;2023-07-20T11:03:56;22.70;;;21.40;;
2019;SDS011;1014;51.960;8.542;2023-07-20T11:06:31;22.93;;;21.63;;
2019;SDS011;1014;51.960;8.542;2023-07-20T11:09:05;22.47;;;21.07;;
2019;SDS011;1014;51.960;8.542;2023-07-20T11:11:33;21.73;;;20.53;;
2019;SDS011;1014;51.960;8.542;2023-07-20T11:14:01;21.90;;;20.70;;
2019;SDS011;1014;51.960;8.542;2023-07-20T11:16:32;22.13;;;20.70;;
2019;SDS011;1014;51.960;8.542;2023-07-20T11:18:59;22.30;;;21.00;;
2019;SDS011;1014;51.960;8.542;2023-07-20T11:21:26;21.90;;;20.60;;
2019;SDS011;1014;51.960;8.542;2023-07-20T11:23:54;22.60;;;21.30;;
2019;SDS011;1014;51.960;8.542;2023-07-20T11:26:23;22.63;;;21.33;;
2019;SDS011;1014;51.960;8.542;2023-07-20T11:28:50;22.30;;;20.90;;
2019;SDS011;1014;51.960;8.542;2023-07-20T11:31:17;22.07;;;20.77;;
2019;SDS011;1014;51.960;8.542;2023-07-20T11:33:45;22.90;;;21.60;;
2019;SDS011;1014;51.960;8.542;2023-07-20T11:36:12;22.80;;;21.50;;
2019;SDS011;1014;51.960;8.542;2023-07-20T11:38:40;23.57;;;22.17;;
2019;SDS011;1014;51.960;8.542;2023-07-20T11:41:08;24.03;;;22.63;;
2019;SDS011;1014;51.960;8.542;2023-07-20T11:43:39;23.47;;;22.07;;
2019;SDS011;1014;51.960;8.542;2023-07-20T11:46:08;23.07;;;21.67;;
2019;SDS011;1014;51.960;8.542;2023-07-20T11:48:36;24.10;;;22.50;;
2019;SDS011;1014;51.960;8.542;2023-07-20T11:51:05;23.77;;;22.37;;
2019;SDS011;1014;51.960;8.542;2023-07-20T11:53:32;24.00;;;22.50;;
2019;SDS011;1014;51.960;8.542;2023-07-20T11:55:59;24.47;;;22.97;;
2019;SDS011;1014;51.960;8.542;2023-07-20T11:58:27;24.60;;;23.10;;
2019;SDS011;1014;51.960;8.542;2023-07-20T12:00:55;23.43;;;21.90;;
2019;SDS011;1014;51.960;8.542;2023-07-20T12:03:22;23.80;;;22.40;;
2019;SDS011;1014;51.960;8.542;2023-07-20T12:05:50;23.60;;;22.20;;
2019;SDS011;1014;51.960;8.542;2023-07-20T12:08:17;23.40;;;22.00;;
2019;SDS011;1014;51.960;8.542;2023-07-20T12:10:44;22.37;;;20.97;;
2019;SDS011;1014;51.960;8.542;2023-07-20T12:13:11;23.10;;;21.70;;
2019;SDS011;1014;51.960;8.542;2023-07-20T12:15:39;23.60;;;22.30;;
2019;SDS011;1014;51.960;8.542;2023-07-20T12:18:07;23.00;;;21.53;;
2019;SDS011;1014;51.960;8.542;2023-07-20T12:20:35;23.10;;;21.70;;
2019;SDS011;1014;51.960;8.542;2023-07-20T12:23:03;24.47;;;22.90;;
2019;SDS011;1014;51.960;8.542;2023-07-20T12:25:36;23.77;;;22.37;;
2019;SDS011;1014;51.960;8.542;2023-07-20T12:28:04;23.47;;;22.07;;
2019;SDS011;1014;51.960;8.542;2023-07-20T12:30:31;23.07;;;21.77;;
2019;SDS011;1014;51.960;8.542;2023-07-20T12:32:58;23.87;;;22.47;;
2019;SDS011;1014;51.960;8.542;2023-07-20T12:35:27;23.60;;;22.20;;
2019;SDS011;1014;51.960;8.542;2023-07-20T12:37:55;23.63;;;22.23;;
2019;SDS011;1014;51.960;8.542;2023-07-20T12:40:22;24.00;;;22.50;;
2019;SDS011;1014;51.960;8.542;2023-07-20T12:42:49;22.60;;;21.30;;
2019;SDS011;1014;51.960;8.542;2023-07-20T12:45:16;23.00;;;21.53;;
2019;SDS011;1014;51.960;8.542;2023-07-20T12:47:43;24.10;;;22.60;;
2019;SDS011;1014;51.960;8.542;2023-07-20T12:50:10;22.30;;;21.00;;
2019;SDS011;1014;51.960;8.542;2023-07-20T12:52:39;22.60;;;21.30;;
2019;SDS011;1014;51.960;8.542;2023-07-20T12:55:07;23.53;;;22.23;;
2019;SDS011;1014;51.960;8.542;2023-07-20T12:57:34;23.20;;;21.90;;
2019;SDS011;1014;51.960;8.542;2023-07-20T13:00:02;23.17;;;21.87;;
2019;SDS011;1014;51.960;8.542;2023-07-20T13:02:29;22.60;;;21.40;;
2019;SDS011;1014;51.960;8.542;2023-07-20T13:04:57;21.13;;;20.03;;
2019;SDS011;1014;51.960;8.542;2023-07-20T13:07:29;22.90;;;21.60;;
2019;SDS011;1014;51.960;8.542;2023-07-20T13:09:58;22.23;;;20.93;;
2019;SDS011;1014;51.960;8.542;2023-07-20T13:12:25;22.30;;;20.73;;
2019;SDS011;1014;51.960;8.542;2023-07-20T13:14:52;22.60;;;21.30;;
2019;SDS011;1014;51.960;8.542;2023-07-20T13:17:19;23.17;;;21.77;;
2019;SDS011;1014;51.960;8.542;2023-07-20T13:19:46;22.93;;;21.63;;
2019;SDS011;1014;51.960;8.542;2023-07-20T13:22:13;22.63;;;21.20;;
2019;SDS011;1014;51.960;8.542;2023-07-20T13:24:40;23.77;;;22.43;;
2019;SDS011;1014;51.960;8.542;2023-07-20T13:27:09;22.70;;;21.40;;
2019;SDS011;1014;51.960;8.542;2023-07-20T13:29:36;22.83;;;21.53;;
2019;SDS011;1014;51.960;8.542;2023-07-20T13:32:03;22.47;;;21.13;;
2019;SDS011;1014;51.960;8.542;2023-07-20T13:34:31;22.00;;;20.70;;
2019;SDS011;1014;51.960;8.542;2023-07-20T13:36:58;22.17;;;20.87;;
2019;SDS011;1014;51.960;8.542;2023-07-20T13:39:25;22.13;;;20.93;;
2019;SDS011;1014;51.960;8.542;2023-07-20T13:41:53;21.73;;;20.43;;
2019;SDS011;1014;51.960;8.542;2023-07-20T13:44:21;21.50;;;20.30;;
2019;SDS011;1014;51.960;8.542;2023-07-20T13:46:48;22.80;;;21.40;;
2019;SDS011;1014;51.960;8.542;2023-07-20T13:49:16;21.33;;;20.13;;
2019;SDS011;1014;51.960;8.542;2023-07-20T13:51:43;21.83;;;20.63;;
2019;SDS011;1014;51.960;8.542;2023-07-20T13:54:10;22.00;;;20.70;;
2019;SDS011;1014;51.960;8.542;2023-07-20T13:56:38;21.00;;;19.77;;
2019;SDS011;1014;51.960;8.542;2023-07-20T13:59:05;21.60;;;20.40;;
2019;SDS011;1014;51.960;8.542;2023-07-20T14:01:33;22.10;;;20.73;;
2019;SDS011;1014;51.960;8.542;2023-07-20T14:04:00;21.80;;;20.57;;
2019;SDS011;1014;51.960;8.542;2023-07-20T14:08:54;21.40;;;20.20;;
2019;SDS011;1014;51.960;8.542;2023-07-20T14:11:22;22.20;;;21.00;;
2019;SDS011;1014;51.960;8.542;2023-07-20T14:13:49;23.03;;;21.53;;
2019;SDS011;1014;51.960;8.542;2023-07-20T14:16:18;22.17;;;20.97;;
2019;SDS011;1014;51.960;8.542;2023-07-20T14:18:46;21.57;;;20.37;;
2019;SDS011;1014;51.960;8.542;2023-07-20T14:21:13;22.40;;;21.10;;
2019;SDS011;1014;51.960;8.542;2023-07-20T14:23:40;22.57;;;21.27;;
2019;SDS011;1014;51.960;8.542;2023-07-20T14:26:07;22.73;;;21.43;;
2019;SDS011;1014;51.960;8.542;2023-07-20T14:28:35;22.00;;;20.70;;
2019;SDS011;1014;51.960;8.542;2023-07-20T14:31:02;22.10;;;20.60;;
2019;SDS011;1014;51.960;8.542;2023-07-20T14:33:30;21.17;;;19.97;;
2019;SDS011;1014;51.960;8.542;2023-07-20T14:35:58;21.27;;;20.07;;
2019;SDS011;1014;51.960;8.542;2023-07-20T14:38:26;22.57;;;21.07;;
2019;SDS011;1014;51.960;8.542;2023-07-20T14:40:53;22.37;;;20.97;;
2019;SDS011;1014;51.960;8.542;2023-07-20T14:43:20;21.80;;;20.60;;
2019;SDS011;1014;51.960;8.542;2023-07-20T14:45:47;22.37;;;21.17;;
2019;SDS011;1014;51.960;8.542;2023-07-20T14:48:14;21.93;;;20.73;;
2019;SDS011;1014;51.960;8.542;2023-07-20T14:50:41;21.97;;;20.77;;
2019;SDS011;1014;51.960;8.542;2023-07-20T14:53:11;22.60;;;21.30;;
2019;SDS011;1014;51.960;8.542;2023-07-20T14:55:39;21.87;;;20.67;;
2019;SDS011;1014;51.960;8.542;2023-07-20T14:58:06;22.47;;;21.17;;
2019;SDS011;1014;51.960;8.542;2023-07-20T15:00:33;22.87;;;21.47;;